createdAt,value
2022-09-26T00:01:16.164Z,5.50
2022-09-26T00:03:44.751Z,5.57
2022-09-26T00:06:12.751Z,5.10
2022-09-26T00:08:40.185Z,5.70
2022-09-26T00:11:08.745Z,4.83
2022-09-26T00:13:37.639Z,5.50
2022-09-26T00:16:04.409Z,5.77
2022-09-26T00:18:30.903Z,5.53
2022-09-26T00:21:24.587Z,5.23
2022-09-26T00:23:51.904Z,4.57
2022-09-26T00:26:20.560Z,3.40
2022-09-26T00:28:47.782Z,3.73
2022-09-26T00:31:18.845Z,4.83
2022-09-26T00:33:45.532Z,5.03
2022-09-26T00:36:12.024Z,3.90
2022-09-26T00:38:39.301Z,3.10
2022-09-26T00:41:08.068Z,3.87
2022-09-26T00:43:35.948Z,3.17
2022-09-26T00:46:27.725Z,3.30
2022-09-26T00:49:28.252Z,3.33
2022-09-26T00:51:59.733Z,2.70
2022-09-26T00:54:29.370Z,2.93
2022-09-26T00:57:00.266Z,3.37
2022-09-26T00:59:30.749Z,3.20
2022-09-26T01:01:59.259Z,3.40
2022-09-26T01:04:28.397Z,3.63
2022-09-26T01:06:58.145Z,3.30
2022-09-26T01:09:25.995Z,3.83
2022-09-26T01:11:53.695Z,4.10
2022-09-26T01:14:21.653Z,4.17
2022-09-26T01:16:53.492Z,4.67
2022-09-26T01:19:26.342Z,3.80
2022-09-26T01:22:19.156Z,4.40
2022-09-26T01:25:12.179Z,3.50
2022-09-26T01:28:06.348Z,4.23
2022-09-26T01:30:41.800Z,3.73
2022-09-26T01:33:36.222Z,3.50
2022-09-26T01:36:27.579Z,3.92
2022-09-26T01:39:14.222Z,3.55
2022-09-26T01:42:03.989Z,4.20
2022-09-26T01:44:48.634Z,4.00
2022-09-26T01:47:27.617Z,3.65
2022-09-26T01:50:05.267Z,3.27
2022-09-26T01:52:46.603Z,3.40
2022-09-26T01:55:31.086Z,3.67
2022-09-26T01:58:06.808Z,3.00
2022-09-26T02:00:35.541Z,3.67
2022-09-26T02:03:04.954Z,4.10
2022-09-26T02:06:04.071Z,3.97
2022-09-26T02:08:51.348Z,4.33
2022-09-26T02:11:19.909Z,3.15
2022-09-26T02:13:57.812Z,3.60
2022-09-26T02:16:41.769Z,3.75
2022-09-26T02:19:17.233Z,4.28
2022-09-26T02:21:44.214Z,4.73
2022-09-26T02:24:10.770Z,3.77
2022-09-26T02:26:37.488Z,4.00
2022-09-26T02:29:05.376Z,4.13
2022-09-26T02:31:36.545Z,3.17
2022-09-26T02:34:04.134Z,4.90
2022-09-26T02:36:33.667Z,4.93
2022-09-26T02:39:01.273Z,5.23
2022-09-26T02:41:51.771Z,4.47
2022-09-26T02:44:43.578Z,4.80
2022-09-26T02:47:22.503Z,4.27
2022-09-26T02:50:13.610Z,5.03
2022-09-26T02:52:46.272Z,4.07
2022-09-26T02:55:12.768Z,5.97
2022-09-26T02:57:50.110Z,5.33
2022-09-26T03:00:22.278Z,4.87
2022-09-26T03:03:04.641Z,5.63
2022-09-26T03:05:32.637Z,6.47
2022-09-26T03:08:11.078Z,5.40
2022-09-26T03:10:38.232Z,4.57
2022-09-26T03:13:16.157Z,4.27
2022-09-26T03:15:48.736Z,4.47
2022-09-26T03:18:21.212Z,4.73
2022-09-26T03:20:48.768Z,4.63
2022-09-26T03:23:15.996Z,4.80
2022-09-26T03:25:42.753Z,5.13
2022-09-26T03:28:10.547Z,5.00
2022-09-26T03:30:37.297Z,5.03
2022-09-26T03:33:03.935Z,4.83
2022-09-26T03:35:30.366Z,4.43
2022-09-26T03:37:56.819Z,4.00
2022-09-26T03:40:23.359Z,4.93
2022-09-26T03:42:50.258Z,4.20
2022-09-26T03:45:17.386Z,5.27
2022-09-26T03:47:43.878Z,4.23
2022-09-26T03:50:10.536Z,3.77
2022-09-26T03:52:36.978Z,4.90
2022-09-26T03:55:04.935Z,3.70
2022-09-26T03:57:31.422Z,4.37
2022-09-26T03:59:57.933Z,4.50
2022-09-26T04:02:24.498Z,4.63
2022-09-26T04:04:51.105Z,4.57
2022-09-26T04:07:17.587Z,4.70
2022-09-26T04:09:44.221Z,4.60
2022-09-26T04:12:10.758Z,4.03
2022-09-26T04:14:37.338Z,4.10
2022-09-26T04:17:03.947Z,4.10
2022-09-26T04:19:30.479Z,3.30
2022-09-26T04:21:57.009Z,3.47
2022-09-26T04:24:23.487Z,3.97
2022-09-26T04:26:49.966Z,3.63
2022-09-26T04:29:16.972Z,3.73
2022-09-26T04:31:43.864Z,2.93
2022-09-26T04:34:11.605Z,3.70
2022-09-26T04:36:38.795Z,3.07
2022-09-26T04:39:09.881Z,2.60
2022-09-26T04:41:37.644Z,3.33
2022-09-26T04:44:04.239Z,2.90
2022-09-26T04:46:31.512Z,2.63
2022-09-26T04:49:00.426Z,2.60
2022-09-26T04:51:28.378Z,2.80
2022-09-26T04:53:55.210Z,2.97
2022-09-26T04:56:23.435Z,2.60
2022-09-26T04:58:50.135Z,3.03
2022-09-26T05:01:19.135Z,2.60
2022-09-26T05:03:46.302Z,2.60
2022-09-26T05:06:14.701Z,2.70
2022-09-26T05:08:44.714Z,3.10
2022-09-26T05:11:11.199Z,2.60
2022-09-26T05:13:38.910Z,2.70
2022-09-26T05:16:08.850Z,2.30
2022-09-26T05:18:37.019Z,2.40
2022-09-26T05:21:06.565Z,2.33
2022-09-26T05:23:52.451Z,2.50
2022-09-26T05:26:29.437Z,2.33
2022-09-26T05:29:06.821Z,2.47
2022-09-26T05:31:37.480Z,3.05
2022-09-26T05:34:13.046Z,3.00
2022-09-26T05:36:42.743Z,3.10
2022-09-26T05:39:27.853Z,3.27
2022-09-26T05:41:54.917Z,2.70
2022-09-26T05:44:21.407Z,2.60
2022-09-26T05:46:48.576Z,3.00
2022-09-26T05:49:15.275Z,2.73
2022-09-26T05:51:41.879Z,2.80
2022-09-26T05:54:08.340Z,3.10
2022-09-26T05:56:37.416Z,2.70
2022-09-26T05:59:04.575Z,2.80
2022-09-26T06:01:32.830Z,2.80
2022-09-26T06:03:59.927Z,3.07
2022-09-26T06:06:26.551Z,3.13
2022-09-26T06:08:53.000Z,3.77
2022-09-26T06:11:28.029Z,3.83
2022-09-26T06:13:55.874Z,3.17
2022-09-26T06:16:22.583Z,3.00
2022-09-26T06:18:51.058Z,2.83
2022-09-26T06:21:19.395Z,2.83
2022-09-26T06:23:46.189Z,2.80
2022-09-26T06:26:28.937Z,2.80
2022-09-26T06:29:01.001Z,3.10
2022-09-26T06:31:28.621Z,2.53
2022-09-26T06:33:55.745Z,2.80
2022-09-26T06:36:24.145Z,2.80
2022-09-26T06:38:51.635Z,2.50
2022-09-26T06:41:18.288Z,3.10
2022-09-26T06:43:45.443Z,3.03
2022-09-26T06:46:13.310Z,2.40
2022-09-26T06:48:39.822Z,2.60
2022-09-26T06:51:07.161Z,2.70
2022-09-26T06:53:35.109Z,2.77
2022-09-26T06:56:02.102Z,2.77
2022-09-26T06:58:28.709Z,2.80
2022-09-26T07:00:55.721Z,2.27
2022-09-26T07:03:24.601Z,2.77
2022-09-26T07:05:51.758Z,2.77
2022-09-26T07:08:18.257Z,3.40
2022-09-26T07:10:44.809Z,2.67
2022-09-26T07:13:11.318Z,2.67
2022-09-26T07:15:37.995Z,2.93
2022-09-26T07:18:06.446Z,2.67
2022-09-26T07:20:36.960Z,2.60
2022-09-26T07:23:05.340Z,2.90
2022-09-26T07:25:33.287Z,2.77
2022-09-26T07:28:00.613Z,3.40
2022-09-26T07:30:28.436Z,3.00
2022-09-26T07:33:03.839Z,3.37
2022-09-26T07:35:32.862Z,2.53
2022-09-26T07:37:59.687Z,2.90
2022-09-26T07:40:27.685Z,2.57
2022-09-26T07:43:15.665Z,2.70
2022-09-26T07:46:03.689Z,3.10
2022-09-26T07:48:48.502Z,3.20
2022-09-26T07:51:16.247Z,3.30
2022-09-26T07:53:42.728Z,2.80
2022-09-26T07:56:12.733Z,3.20
2022-09-26T07:58:44.591Z,3.60
2022-09-26T08:01:13.153Z,3.17
2022-09-26T08:03:49.162Z,3.17
2022-09-26T08:06:20.260Z,2.83
2022-09-26T08:08:48.218Z,2.65
2022-09-26T08:11:19.539Z,3.70
2022-09-26T08:13:47.291Z,2.83
2022-09-26T08:16:23.472Z,3.03
2022-09-26T08:18:51.440Z,2.75
2022-09-26T08:21:18.365Z,2.70
2022-09-26T08:23:46.816Z,2.72
2022-09-26T08:26:14.175Z,2.90
2022-09-26T08:28:41.078Z,2.47
2022-09-26T08:31:08.251Z,2.85
2022-09-26T08:33:36.223Z,2.72
2022-09-26T08:36:11.251Z,2.70
2022-09-26T08:38:38.291Z,2.85
2022-09-26T08:41:32.740Z,2.70
2022-09-26T08:44:22.920Z,2.90
2022-09-26T08:47:05.914Z,3.03
2022-09-26T08:49:48.310Z,3.65
2022-09-26T08:52:29.741Z,2.72
2022-09-26T08:55:32.891Z,3.50
2022-09-26T08:58:04.267Z,2.93
2022-09-26T09:00:38.432Z,3.13
2022-09-26T09:03:10.949Z,3.42
2022-09-26T09:05:42.515Z,3.00
2022-09-26T09:08:25.817Z,2.70
2022-09-26T09:11:02.499Z,2.97
2022-09-26T09:13:53.907Z,3.85
2022-09-26T09:16:29.597Z,3.72
2022-09-26T09:19:27.762Z,3.73
2022-09-26T09:22:06.109Z,5.50
2022-09-26T09:25:05.972Z,4.88
2022-09-26T09:28:08.146Z,9.38
2022-09-26T09:30:45.423Z,5.68
2022-09-26T09:33:17.708Z,8.52
2022-09-26T09:35:49.482Z,6.25
2022-09-26T09:38:19.789Z,7.63
2022-09-26T09:41:05.097Z,4.72
2022-09-26T09:43:58.095Z,6.68
2022-09-26T09:46:36.185Z,10.27
2022-09-26T09:49:19.014Z,6.82
2022-09-26T09:52:03.784Z,5.65
2022-09-26T09:54:51.610Z,3.87
2022-09-26T09:58:15.526Z,5.60
2022-09-26T10:00:53.879Z,5.47
2022-09-26T10:03:45.933Z,5.32
2022-09-26T10:06:46.217Z,4.72
2022-09-26T10:09:38.674Z,5.10
2022-09-26T10:11:59.068Z,5.15
2022-09-26T10:14:39.578Z,5.03
2022-09-26T10:17:09.123Z,4.75
2022-09-26T10:19:37.667Z,4.30
2022-09-26T10:22:09.544Z,4.07
2022-09-26T10:24:41.603Z,4.57
2022-09-26T10:27:23.716Z,4.00
2022-09-26T10:29:58.948Z,4.75
2022-09-26T10:32:26.760Z,4.10
2022-09-26T10:35:07.881Z,4.30
2022-09-26T10:37:37.119Z,5.55
2022-09-26T10:40:40.864Z,4.60
2022-09-26T10:43:28.838Z,4.63
2022-09-26T10:46:02.470Z,4.07
2022-09-26T10:48:43.379Z,6.05
2022-09-26T10:51:11.159Z,4.03
2022-09-26T10:53:40.329Z,4.28
2022-09-26T10:56:11.944Z,4.00
2022-09-26T10:58:44.938Z,4.50
2022-09-26T11:01:27.789Z,3.85
2022-09-26T11:03:57.504Z,3.78
2022-09-26T11:06:29.705Z,3.85
2022-09-26T11:09:00.500Z,3.22
2022-09-26T11:11:27.986Z,3.88
2022-09-26T11:14:03.883Z,4.20
2022-09-26T11:16:39.542Z,3.50
2022-09-26T11:19:21.958Z,3.85
2022-09-26T11:21:58.531Z,3.55
2022-09-26T11:24:37.472Z,3.50
2022-09-26T11:27:19.460Z,3.50
2022-09-26T11:30:10.905Z,3.35
2022-09-26T11:32:43.868Z,3.42
2022-09-26T11:35:16.390Z,3.10
2022-09-26T11:38:05.656Z,3.15
2022-09-26T11:40:32.319Z,3.15
2022-09-26T11:43:25.204Z,3.28
2022-09-26T11:46:37.031Z,2.90
2022-09-26T11:49:48.298Z,3.28
2022-09-26T11:52:49.222Z,2.88
2022-09-26T11:55:37.229Z,3.38
2022-09-26T11:58:22.383Z,3.60
2022-09-26T12:01:11.402Z,3.80
2022-09-26T12:03:40.762Z,3.08
2022-09-26T12:06:33.683Z,3.28
2022-09-26T12:09:22.154Z,3.58
2022-09-26T12:11:58.096Z,3.22
2022-09-26T12:15:08.555Z,2.97
2022-09-26T12:18:13.255Z,2.95
2022-09-26T12:21:07.515Z,2.83
2022-09-26T12:23:57.281Z,2.92
2022-09-26T12:26:39.866Z,3.05
2022-09-26T12:29:28.621Z,2.85
2022-09-26T12:32:20.238Z,3.38
2022-09-26T12:35:19.897Z,4.03
2022-09-26T12:37:57.494Z,3.35
2022-09-26T12:40:43.287Z,3.33
2022-09-26T12:43:21.573Z,2.75
2022-09-26T12:46:00.362Z,3.13
2022-09-26T12:49:03.924Z,3.13
2022-09-26T12:51:49.119Z,3.40
2022-09-26T12:54:40.517Z,3.00
2022-09-26T12:57:14.758Z,2.35
2022-09-26T13:00:10.331Z,2.85
2022-09-26T13:02:51.165Z,2.90
2022-09-26T13:05:31.129Z,2.45
2022-09-26T13:08:15.679Z,2.70
2022-09-26T13:11:12.939Z,2.17
2022-09-26T13:13:59.160Z,2.55
2022-09-26T13:16:44.411Z,2.13
2022-09-26T13:19:23.847Z,2.40
2022-09-26T13:21:54.283Z,2.20
2022-09-26T13:24:35.027Z,2.13
2022-09-26T13:27:30.008Z,1.98
2022-09-26T13:30:29.315Z,1.90
2022-09-26T13:33:20.833Z,2.00
2022-09-26T13:35:51.365Z,2.00
2022-09-26T13:38:20.593Z,2.20
2022-09-26T13:41:15.017Z,2.40
2022-09-26T13:44:03.638Z,2.28
2022-09-26T13:46:42.324Z,2.08
2022-09-26T13:49:30.608Z,2.60
2022-09-26T13:52:02.926Z,2.75
2022-09-26T13:54:45.399Z,3.25
2022-09-26T13:57:36.892Z,3.35
2022-09-26T14:00:34.964Z,2.90
2022-09-26T14:03:13.278Z,2.42
2022-09-26T14:05:48.156Z,2.97
2022-09-26T14:08:43.002Z,3.17
2022-09-26T14:11:19.005Z,3.00
2022-09-26T14:13:47.595Z,1.45
2022-09-26T14:16:35.687Z,2.92
2022-09-26T14:19:15.889Z,2.97
2022-09-26T14:22:25.208Z,2.83
2022-09-26T14:24:52.566Z,1.98
2022-09-26T14:27:19.134Z,2.70
2022-09-26T14:30:18.201Z,2.53
2022-09-26T14:32:46.904Z,2.83
2022-09-26T14:35:43.241Z,2.65
2022-09-26T14:38:16.277Z,2.78
2022-09-26T14:41:22.453Z,2.65
2022-09-26T14:43:51.074Z,2.90
2022-09-26T14:46:24.058Z,2.33
2022-09-26T14:49:01.751Z,2.60
2022-09-26T14:51:32.414Z,2.25
2022-09-26T14:54:07.251Z,3.00
2022-09-26T14:57:02.551Z,2.20
2022-09-26T14:59:35.049Z,1.85
2022-09-26T15:02:14.344Z,1.65
2022-09-26T15:04:42.689Z,2.88
2022-09-26T15:07:27.784Z,2.90
2022-09-26T15:10:09.178Z,2.67
2022-09-26T15:12:47.792Z,2.15
2022-09-26T15:15:40.721Z,2.80
2022-09-26T15:18:25.913Z,3.45
2022-09-26T15:21:04.026Z,3.00
2022-09-26T15:23:34.224Z,4.68
2022-09-26T15:26:06.311Z,3.25
2022-09-26T15:28:34.921Z,3.20
2022-09-26T15:31:20.578Z,3.75
2022-09-26T15:34:04.441Z,3.00
2022-09-26T15:36:34.720Z,4.65
2022-09-26T15:39:22.568Z,5.00
2022-09-26T15:42:07.726Z,1.88
2022-09-26T15:44:35.420Z,5.35
2022-09-26T15:47:26.742Z,2.50
2022-09-26T15:50:22.640Z,2.67
2022-09-26T15:53:00.224Z,2.70
2022-09-26T15:55:45.421Z,2.20
2022-09-26T15:58:17.412Z,3.42
2022-09-26T16:00:48.344Z,3.15
2022-09-26T16:03:20.968Z,2.85
2022-09-26T16:05:48.143Z,2.83
2022-09-26T16:08:28.282Z,3.05
2022-09-26T16:11:00.201Z,3.63
2022-09-26T16:13:33.450Z,3.70
2022-09-26T16:16:09.147Z,3.17
2022-09-26T16:18:47.221Z,3.28
2022-09-26T16:21:17.870Z,1.85
2022-09-26T16:23:50.417Z,5.90
2022-09-26T16:26:21.777Z,5.28
2022-09-26T16:28:52.880Z,6.13
2022-09-26T16:31:29.144Z,6.30
2022-09-26T16:33:58.487Z,2.85
2022-09-26T16:36:29.548Z,4.72
2022-09-26T16:39:01.921Z,5.07
2022-09-26T16:44:34.472Z,5.50
2022-09-26T16:47:05.574Z,2.40
2022-09-26T16:49:45.990Z,5.80
2022-09-26T16:52:27.101Z,2.45
2022-09-26T16:54:59.797Z,3.78
2022-09-26T16:57:35.315Z,4.60
2022-09-26T17:00:34.692Z,2.70
2022-09-26T17:03:02.041Z,3.58
2022-09-26T17:05:28.875Z,2.15
2022-09-26T17:07:55.511Z,2.30
2022-09-26T17:10:24.915Z,2.00
2022-09-26T17:12:53.041Z,3.20
2022-09-26T17:15:27.398Z,4.35
2022-09-26T17:17:54.871Z,4.93
2022-09-26T17:20:22.243Z,4.10
2022-09-26T17:22:49.148Z,4.47
2022-09-26T17:25:16.387Z,4.55
2022-09-26T17:27:43.464Z,4.22
2022-09-26T17:30:18.744Z,4.13
2022-09-26T17:32:49.869Z,4.60
2022-09-26T17:35:22.712Z,4.70
2022-09-26T17:37:52.063Z,4.53
2022-09-26T17:40:24.327Z,4.75
2022-09-26T17:42:55.555Z,4.75
2022-09-26T17:45:32.184Z,4.53
2022-09-26T17:48:04.556Z,3.95
2022-09-26T17:50:41.615Z,4.43
2022-09-26T17:55:59.932Z,3.78
2022-09-26T17:58:27.021Z,3.30
2022-09-26T18:00:57.733Z,4.03
2022-09-26T18:03:30.713Z,3.90
2022-09-26T18:06:01.375Z,4.80
2022-09-26T18:08:30.973Z,2.80
2022-09-26T18:11:03.522Z,3.72
2022-09-26T18:13:35.735Z,5.57
2022-09-26T18:16:03.301Z,3.30
2022-09-26T18:18:32.218Z,3.30
2022-09-26T18:21:04.122Z,3.42
2022-09-26T18:24:02.298Z,5.10
2022-09-26T18:26:47.623Z,4.97
2022-09-26T18:29:20.956Z,4.40
2022-09-26T18:31:48.613Z,3.80
2022-09-26T18:34:21.644Z,4.50
2022-09-26T18:36:50.167Z,5.03
2022-09-26T18:39:17.097Z,4.60
2022-09-26T18:41:45.234Z,8.38
2022-09-26T18:44:16.993Z,4.53
2022-09-26T18:46:46.823Z,2.80
2022-09-26T18:49:14.367Z,3.25
2022-09-26T18:51:41.114Z,4.38
2022-09-26T18:54:13.828Z,3.50
2022-09-26T18:56:59.529Z,4.40
2022-09-26T18:59:29.061Z,3.35
2022-09-26T19:01:56.370Z,3.35
2022-09-26T19:04:23.475Z,3.83
2022-09-26T19:07:01.373Z,3.80
2022-09-26T19:09:35.536Z,3.90
2022-09-26T19:12:03.209Z,3.05
2022-09-26T19:14:30.775Z,3.72
2022-09-26T19:16:58.142Z,3.55
2022-09-26T19:19:25.558Z,3.13
2022-09-26T19:21:56.686Z,3.22
2022-09-26T19:24:31.678Z,3.88
2022-09-26T19:27:06.525Z,4.00
2022-09-26T19:30:16.862Z,3.95
2022-09-26T19:32:53.041Z,3.50
2022-09-26T19:35:34.195Z,2.85
2022-09-26T19:38:03.131Z,3.40
2022-09-26T19:40:29.677Z,3.65
2022-09-26T19:42:57.352Z,3.58
2022-09-26T19:45:24.909Z,3.72
2022-09-26T19:47:54.484Z,3.63
2022-09-26T19:50:25.906Z,3.45
2022-09-26T19:52:54.561Z,3.97
2022-09-26T19:55:26.870Z,3.20
2022-09-26T19:57:54.889Z,2.80
2022-09-26T20:00:21.475Z,3.00
2022-09-26T20:02:51.664Z,2.60
2022-09-26T20:05:21.263Z,2.40
2022-09-26T20:07:47.823Z,1.97
2022-09-26T20:10:19.773Z,1.92
2022-09-26T20:12:48.409Z,1.90
2022-09-26T20:15:16.711Z,1.60
2022-09-26T20:17:44.762Z,1.50
2022-09-26T20:20:17.415Z,1.60
2022-09-26T20:22:44.824Z,1.60
2022-09-26T20:25:25.844Z,1.60
2022-09-26T20:27:53.428Z,1.50
2022-09-26T20:30:39.096Z,1.30
2022-09-26T20:33:06.366Z,1.70
2022-09-26T20:35:40.024Z,1.33
2022-09-26T20:38:11.807Z,1.20
2022-09-26T20:40:40.646Z,1.30
2022-09-26T20:43:14.439Z,1.40
2022-09-26T20:45:44.189Z,1.37
2022-09-26T20:48:19.563Z,1.30
2022-09-26T20:50:48.281Z,1.03
2022-09-26T20:53:20.162Z,3.10
2022-09-26T20:55:47.658Z,1.80
2022-09-26T20:58:14.437Z,1.43
2022-09-26T21:00:42.293Z,1.27
2022-09-26T21:03:11.516Z,1.00
2022-09-26T21:05:38.244Z,1.40
2022-09-26T21:08:14.515Z,1.30
2022-09-26T21:10:41.155Z,1.03
2022-09-26T21:13:08.898Z,0.97
2022-09-26T21:15:35.798Z,1.40
2022-09-26T21:18:02.795Z,1.20
2022-09-26T21:20:32.289Z,1.10
2022-09-26T21:23:01.405Z,1.10
2022-09-26T21:25:30.768Z,1.07
2022-09-26T21:28:06.513Z,1.20
2022-09-26T21:30:33.616Z,1.30
2022-09-26T21:33:00.699Z,1.30
2022-09-26T21:35:32.171Z,1.20
2022-09-26T21:38:01.116Z,1.07
2022-09-26T21:40:31.299Z,0.87
2022-09-26T21:43:03.717Z,1.40
2022-09-26T21:45:30.358Z,0.90
2022-09-26T21:47:57.433Z,1.17
2022-09-26T21:50:26.905Z,1.07
2022-09-26T21:52:59.406Z,9.83
2022-09-26T21:55:38.812Z,1.20
2022-09-26T21:58:09.581Z,1.20
2022-09-26T22:00:36.062Z,1.07
2022-09-26T22:03:02.756Z,1.67
2022-09-26T22:05:29.262Z,1.80
2022-09-26T22:07:56.749Z,1.70
2022-09-26T22:10:23.199Z,1.50
2022-09-26T22:12:52.228Z,1.63
2022-09-26T22:15:19.402Z,1.63
2022-09-26T22:17:45.942Z,1.67
2022-09-26T22:20:12.963Z,1.40
2022-09-26T22:22:39.514Z,1.47
2022-09-26T22:25:06.906Z,1.70
2022-09-26T22:27:34.872Z,1.30
2022-09-26T22:30:01.413Z,1.40
2022-09-26T22:32:28.002Z,1.23
2022-09-26T22:34:54.527Z,1.50
2022-09-26T22:37:21.043Z,0.97
2022-09-26T22:39:48.092Z,1.90
2022-09-26T22:42:14.893Z,1.90
2022-09-26T22:44:41.355Z,1.40
2022-09-26T22:47:07.980Z,1.13
2022-09-26T22:49:34.536Z,1.77
2022-09-26T22:52:01.187Z,1.50
2022-09-26T22:54:27.736Z,2.00
2022-09-26T22:56:54.439Z,1.40
2022-09-26T22:59:21.061Z,1.30
2022-09-26T23:01:48.143Z,1.40
2022-09-26T23:04:14.663Z,1.47
2022-09-26T23:06:41.128Z,1.60
2022-09-26T23:09:07.789Z,1.33
2022-09-26T23:11:34.363Z,1.40
2022-09-26T23:14:00.897Z,6.70
2022-09-26T23:16:27.874Z,1.40
2022-09-26T23:18:55.184Z,1.40
2022-09-26T23:21:23.836Z,1.47
2022-09-26T23:23:52.779Z,1.30
2022-09-26T23:26:23.721Z,1.40
2022-09-26T23:28:51.357Z,1.47
2022-09-26T23:31:18.655Z,1.03
2022-09-26T23:33:45.270Z,1.87
2022-09-26T23:36:12.783Z,1.53
2022-09-26T23:38:40.247Z,1.37
2022-09-26T23:41:08.219Z,0.90
2022-09-26T23:43:34.982Z,1.00
2022-09-26T23:46:01.762Z,0.90
2022-09-26T23:48:28.601Z,0.90
2022-09-26T23:50:55.290Z,1.33
2022-09-26T23:53:22.257Z,0.80
2022-09-26T23:55:48.884Z,1.10
2022-09-26T23:58:15.761Z,0.90
